createdAt,value
2023-06-18T00:00:46.461Z,12.47
2023-06-18T00:03:34.575Z,9.43
2023-06-18T00:06:03.563Z,9.90
2023-06-18T00:08:31.653Z,10.00
2023-06-18T00:10:59.558Z,8.88
2023-06-18T00:13:27.656Z,9.23
2023-06-18T00:15:55.445Z,10.90
2023-06-18T00:18:23.629Z,10.00
2023-06-18T00:20:51.605Z,9.75
2023-06-18T00:23:19.786Z,10.90
2023-06-18T00:25:47.685Z,8.67
2023-06-18T00:28:15.817Z,9.82
2023-06-18T00:30:43.798Z,10.75
2023-06-18T00:33:12.036Z,8.35
2023-06-18T00:35:40.742Z,8.15
2023-06-18T00:38:08.976Z,8.83
2023-06-18T00:40:36.815Z,9.02
2023-06-18T00:43:05.243Z,8.48
2023-06-18T00:45:33.096Z,8.18
2023-06-18T00:48:01.323Z,10.25
2023-06-18T00:50:33.671Z,10.60
2023-06-18T00:53:02.238Z,9.40
2023-06-18T00:55:31.552Z,10.30
2023-06-18T00:58:04.557Z,10.88
2023-06-18T01:00:34.616Z,11.98
2023-06-18T01:03:17.698Z,8.93
2023-06-18T01:05:54.400Z,8.77
2023-06-18T01:08:24.837Z,13.48
2023-06-18T01:11:07.016Z,10.13
2023-06-18T01:13:42.594Z,9.82
2023-06-18T01:16:10.951Z,12.87
2023-06-18T01:18:57.936Z,9.38
2023-06-18T01:21:32.064Z,9.35
2023-06-18T01:24:05.926Z,9.00
2023-06-18T01:26:34.793Z,11.15
2023-06-18T01:29:04.346Z,7.40
2023-06-18T01:31:37.834Z,8.20
2023-06-18T01:34:07.890Z,8.90
2023-06-18T01:36:49.244Z,9.65
2023-06-18T01:39:38.676Z,13.00
2023-06-18T01:42:18.286Z,10.80
2023-06-18T01:44:59.075Z,11.13
2023-06-18T01:47:28.752Z,9.20
2023-06-18T01:50:00.608Z,10.20
2023-06-18T01:52:31.313Z,8.80
2023-06-18T01:55:02.928Z,11.40
2023-06-18T01:57:33.897Z,7.57
2023-06-18T02:00:03.666Z,13.45
2023-06-18T02:02:42.157Z,8.35
2023-06-18T02:05:11.501Z,14.25
2023-06-18T02:07:39.176Z,10.47
2023-06-18T02:10:07.968Z,8.77
2023-06-18T02:12:35.849Z,10.13
2023-06-18T02:15:04.363Z,14.18
2023-06-18T02:17:33.194Z,12.60
2023-06-18T02:20:01.256Z,13.63
2023-06-18T02:22:29.673Z,9.88
2023-06-18T02:25:03.123Z,11.27
2023-06-18T02:27:31.311Z,10.88
2023-06-18T02:30:03.423Z,8.27
2023-06-18T02:32:33.358Z,10.50
2023-06-18T02:35:01.665Z,13.63
2023-06-18T02:37:29.991Z,13.38
2023-06-18T02:39:58.177Z,12.60
2023-06-18T02:42:26.030Z,11.25
2023-06-18T02:44:54.290Z,9.03
2023-06-18T02:47:22.212Z,12.88
2023-06-18T02:49:50.451Z,10.38
2023-06-18T02:52:18.320Z,8.85
2023-06-18T02:54:47.090Z,10.55
2023-06-18T02:57:14.811Z,9.80
2023-06-18T02:59:43.099Z,9.73
2023-06-18T03:02:11.143Z,18.08
2023-06-18T03:04:39.519Z,9.98
2023-06-18T03:07:07.556Z,8.80
2023-06-18T03:09:35.956Z,9.33
2023-06-18T03:12:04.409Z,9.82
2023-06-18T03:14:33.919Z,13.25
2023-06-18T03:17:01.985Z,10.45
2023-06-18T03:19:32.402Z,11.20
2023-06-18T03:22:00.262Z,10.17
2023-06-18T03:24:28.633Z,10.23
2023-06-18T03:27:00.054Z,12.63
2023-06-18T03:29:31.782Z,8.77
2023-06-18T03:32:00.292Z,9.35
2023-06-18T03:34:28.701Z,8.37
2023-06-18T03:36:56.635Z,10.50
2023-06-18T03:39:25.071Z,9.57
2023-06-18T03:41:53.084Z,8.43
2023-06-18T03:44:23.305Z,9.02
2023-06-18T03:46:51.772Z,10.63
2023-06-18T03:49:20.129Z,10.82
2023-06-18T03:51:48.224Z,13.70
2023-06-18T03:54:16.721Z,9.85
2023-06-18T03:56:45.315Z,8.80
2023-06-18T03:59:14.402Z,8.83
2023-06-18T04:01:43.916Z,9.70
2023-06-18T04:04:12.118Z,10.27
2023-06-18T04:06:40.875Z,8.32
2023-06-18T04:09:10.217Z,10.88
2023-06-18T04:11:40.154Z,10.10
2023-06-18T04:14:10.659Z,10.90
2023-06-18T04:16:38.815Z,7.82
2023-06-18T04:19:07.168Z,8.57
2023-06-18T04:21:37.032Z,8.15
2023-06-18T04:24:06.380Z,8.87
2023-06-18T04:26:34.411Z,11.35
2023-06-18T04:29:03.332Z,10.70
2023-06-18T04:31:32.369Z,8.90
2023-06-18T04:34:00.630Z,22.25
2023-06-18T04:36:29.265Z,9.40
2023-06-18T04:38:57.564Z,7.63
2023-06-18T04:41:25.773Z,8.65
2023-06-18T04:43:54.147Z,8.35
2023-06-18T04:46:22.214Z,7.93
2023-06-18T04:48:50.590Z,12.80
2023-06-18T04:51:18.628Z,11.13
2023-06-18T04:53:47.901Z,8.05
2023-06-18T04:56:16.127Z,8.48
2023-06-18T04:58:44.816Z,8.52
2023-06-18T05:01:12.701Z,7.30
2023-06-18T05:03:45.392Z,9.00
2023-06-18T05:06:13.715Z,9.70
2023-06-18T05:08:41.839Z,9.88
2023-06-18T05:11:09.739Z,8.35
2023-06-18T05:13:41.365Z,10.30
2023-06-18T05:16:09.475Z,8.65
2023-06-18T05:18:40.265Z,9.95
2023-06-18T05:21:14.064Z,7.78
2023-06-18T05:23:42.782Z,9.30
2023-06-18T05:26:10.749Z,8.00
2023-06-18T05:28:38.932Z,8.70
2023-06-18T05:31:09.565Z,7.32
2023-06-18T05:33:38.342Z,9.65
2023-06-18T05:36:07.496Z,7.43
2023-06-18T05:38:35.754Z,8.87
2023-06-18T05:41:04.331Z,7.80
2023-06-18T05:43:33.295Z,8.40
2023-06-18T05:46:03.059Z,8.57
2023-06-18T05:48:31.559Z,6.80
2023-06-18T05:51:17.133Z,6.87
2023-06-18T05:53:45.479Z,8.55
2023-06-18T05:56:14.947Z,7.65
2023-06-18T05:58:43.621Z,8.98
2023-06-18T06:01:11.596Z,9.02
2023-06-18T06:03:39.811Z,8.93
2023-06-18T06:06:08.882Z,8.32
2023-06-18T06:08:38.327Z,8.48
2023-06-18T06:11:11.222Z,7.68
2023-06-18T06:13:40.146Z,7.72
2023-06-18T06:16:11.555Z,9.17
2023-06-18T06:18:39.789Z,7.05
2023-06-18T06:21:08.429Z,6.60
2023-06-18T06:23:36.521Z,9.18
2023-06-18T06:26:04.610Z,8.48
2023-06-18T06:28:34.171Z,7.53
2023-06-18T06:31:01.999Z,10.82
2023-06-18T06:33:31.332Z,7.60
2023-06-18T06:35:59.274Z,8.30
2023-06-18T06:38:28.838Z,8.23
2023-06-18T06:40:56.721Z,7.13
2023-06-18T06:43:28.516Z,7.35
2023-06-18T06:46:15.499Z,9.05
2023-06-18T06:49:04.768Z,8.52
2023-06-18T06:51:32.921Z,9.50
2023-06-18T06:54:11.179Z,6.00
2023-06-18T06:56:39.798Z,6.70
2023-06-18T06:59:10.628Z,11.13
2023-06-18T07:01:41.491Z,7.93
2023-06-18T07:04:10.099Z,9.80
2023-06-18T07:06:41.520Z,6.97
2023-06-18T07:09:10.140Z,6.60
2023-06-18T07:11:42.127Z,12.48
2023-06-18T07:14:10.455Z,7.53
2023-06-18T07:16:38.424Z,7.45
2023-06-18T07:19:07.952Z,9.17
2023-06-18T07:21:36.006Z,7.93
2023-06-18T07:24:04.478Z,8.68
2023-06-18T07:26:32.439Z,6.68
2023-06-18T07:29:00.816Z,6.88
2023-06-18T07:31:28.682Z,11.40
2023-06-18T07:34:00.920Z,7.20
2023-06-18T07:36:28.829Z,7.90
2023-06-18T07:38:57.956Z,6.07
2023-06-18T07:41:26.022Z,7.22
2023-06-18T07:43:54.157Z,8.80
2023-06-18T07:46:22.347Z,9.35
2023-06-18T07:48:50.775Z,5.78
2023-06-18T07:51:18.952Z,7.28
2023-06-18T07:53:47.458Z,8.68
2023-06-18T07:56:15.724Z,5.77
2023-06-18T07:58:45.575Z,7.82
2023-06-18T08:01:13.646Z,8.90
2023-06-18T08:03:42.477Z,5.75
2023-06-18T08:06:11.433Z,4.68
2023-06-18T08:08:39.913Z,5.63
2023-06-18T08:11:08.018Z,5.85
2023-06-18T08:13:39.395Z,7.63
2023-06-18T08:16:07.654Z,4.95
2023-06-18T08:18:36.352Z,7.50
2023-06-18T08:21:05.224Z,5.07
2023-06-18T08:23:33.545Z,5.20
2023-06-18T08:26:01.709Z,4.65
2023-06-18T08:28:30.686Z,4.78
2023-06-18T08:30:58.693Z,4.47
2023-06-18T08:33:27.129Z,5.77
2023-06-18T08:35:55.774Z,5.05
2023-06-18T08:38:24.067Z,4.63
2023-06-18T08:40:55.986Z,3.78
2023-06-18T08:43:28.911Z,4.10
2023-06-18T08:45:58.482Z,3.83
2023-06-18T08:48:32.425Z,3.90
2023-06-18T08:51:05.636Z,4.82
2023-06-18T08:53:43.423Z,4.43
2023-06-18T08:56:11.553Z,4.75
2023-06-18T08:58:44.584Z,4.53
2023-06-18T09:01:13.733Z,12.20
2023-06-18T09:03:44.366Z,6.18
2023-06-18T09:06:16.069Z,5.72
2023-06-18T09:08:48.465Z,4.78
2023-06-18T09:11:17.398Z,6.33
2023-06-18T09:13:45.907Z,6.68
2023-06-18T09:16:14.495Z,5.95
2023-06-18T09:18:43.480Z,7.05
2023-06-18T09:21:12.133Z,9.52
2023-06-18T09:23:40.451Z,6.60
2023-06-18T09:26:08.577Z,6.30
2023-06-18T09:28:38.557Z,7.00
2023-06-18T09:31:09.634Z,6.57
2023-06-18T09:33:38.495Z,6.57
2023-06-18T09:36:10.424Z,5.77
2023-06-18T09:38:41.261Z,6.65
2023-06-18T09:41:19.741Z,5.78
2023-06-18T09:43:49.772Z,7.47
2023-06-18T09:46:18.170Z,6.25
2023-06-18T09:48:49.316Z,6.77
2023-06-18T09:51:22.914Z,6.10
2023-06-18T09:54:01.398Z,10.88
2023-06-18T09:56:29.501Z,7.32
2023-06-18T09:58:57.996Z,6.13
2023-06-18T10:01:28.824Z,6.73
2023-06-18T10:03:57.587Z,7.95
2023-06-18T10:06:25.414Z,7.45
2023-06-18T10:08:58.641Z,11.48
2023-06-18T10:11:28.101Z,7.07
2023-06-18T10:14:04.774Z,6.97
2023-06-18T10:16:35.746Z,7.22
2023-06-18T10:19:11.029Z,5.45
2023-06-18T10:21:43.310Z,5.25
2023-06-18T10:24:19.361Z,5.78
2023-06-18T10:26:47.701Z,4.80
2023-06-18T10:29:16.157Z,8.32
2023-06-18T10:31:44.772Z,5.03
2023-06-18T10:34:14.750Z,6.72
2023-06-18T10:36:43.523Z,4.88
2023-06-18T10:39:23.954Z,5.50
2023-06-18T10:41:54.393Z,5.63
2023-06-18T10:44:52.323Z,4.32
2023-06-18T10:47:25.383Z,4.00
2023-06-18T10:50:03.159Z,4.13
2023-06-18T10:52:33.359Z,3.80
2023-06-18T10:55:08.425Z,5.28
2023-06-18T10:57:43.265Z,4.25
2023-06-18T11:00:27.410Z,3.83
2023-06-18T11:03:03.328Z,3.28
2023-06-18T11:05:34.763Z,4.63
2023-06-18T11:08:07.635Z,4.45
2023-06-18T11:10:40.565Z,3.60
2023-06-18T11:13:11.230Z,3.75
2023-06-18T11:16:02.201Z,3.88
2023-06-18T11:18:31.695Z,3.70
2023-06-18T11:21:01.024Z,4.50
2023-06-18T11:23:31.241Z,8.32
2023-06-18T11:26:00.535Z,7.10
2023-06-18T11:28:29.988Z,4.90
2023-06-18T11:31:00.150Z,7.20
2023-06-18T11:33:30.590Z,3.38
2023-06-18T11:36:14.429Z,3.30
2023-06-18T11:38:43.736Z,2.50
2023-06-18T11:41:12.112Z,2.40
2023-06-18T11:43:52.938Z,3.67
2023-06-18T11:46:28.821Z,3.17
2023-06-18T11:48:57.270Z,3.60
2023-06-18T11:51:27.765Z,3.50
2023-06-18T11:53:56.051Z,6.65
2023-06-18T11:56:31.605Z,2.80
2023-06-18T11:59:00.215Z,3.13
2023-06-18T12:01:30.195Z,3.40
2023-06-18T12:04:09.930Z,2.30
2023-06-18T12:06:39.375Z,3.50
2023-06-18T12:09:07.947Z,3.03
2023-06-18T12:12:03.585Z,3.90
2023-06-18T12:14:58.705Z,2.70
2023-06-18T12:17:58.711Z,4.22
2023-06-18T12:20:29.516Z,4.95
2023-06-18T12:23:00.540Z,3.93
2023-06-18T12:25:31.977Z,3.30
2023-06-18T12:28:05.240Z,3.33
2023-06-18T12:30:37.531Z,2.88
2023-06-18T12:33:08.652Z,3.50
2023-06-18T12:35:37.926Z,2.93
2023-06-18T12:38:10.182Z,2.75
2023-06-18T12:40:49.984Z,2.97
2023-06-18T12:43:20.301Z,3.85
2023-06-18T12:45:51.444Z,3.10
2023-06-18T12:48:28.199Z,4.27
2023-06-18T12:50:57.242Z,5.40
2023-06-18T12:53:30.389Z,3.90
2023-06-18T12:56:01.347Z,3.30
2023-06-18T12:58:31.145Z,4.88
2023-06-18T13:01:00.630Z,6.10
2023-06-18T13:03:29.757Z,5.97
2023-06-18T13:05:59.635Z,5.60
2023-06-18T13:08:28.296Z,4.45
2023-06-18T13:10:58.191Z,6.90
2023-06-18T13:13:26.963Z,4.90
2023-06-18T13:15:54.767Z,4.47
2023-06-18T13:18:23.226Z,5.40
2023-06-18T13:20:51.430Z,5.13
2023-06-18T13:23:19.816Z,4.80
2023-06-18T13:25:47.527Z,5.27
2023-06-18T13:28:18.619Z,6.63
2023-06-18T13:30:46.798Z,4.63
2023-06-18T13:33:14.866Z,7.28
2023-06-18T13:35:42.969Z,4.18
2023-06-18T13:38:11.957Z,4.63
2023-06-18T13:40:39.980Z,4.18
2023-06-18T13:43:14.571Z,4.43
2023-06-18T13:45:42.527Z,5.72
2023-06-18T13:48:10.695Z,5.30
2023-06-18T13:50:40.155Z,6.73
2023-06-18T13:53:11.652Z,5.20
2023-06-18T13:55:40.126Z,4.75
2023-06-18T13:58:08.642Z,4.05
2023-06-18T14:00:36.582Z,4.88
2023-06-18T14:03:04.981Z,5.27
2023-06-18T14:05:37.434Z,6.45
2023-06-18T14:08:06.180Z,4.65
2023-06-18T14:10:34.184Z,6.40
2023-06-18T14:13:02.662Z,4.25
2023-06-18T14:15:30.808Z,4.23
2023-06-18T14:17:59.889Z,5.70
2023-06-18T14:20:27.965Z,4.82
2023-06-18T14:22:57.368Z,4.70
2023-06-18T14:25:25.556Z,6.85
2023-06-18T14:27:54.381Z,6.00
2023-06-18T14:30:22.471Z,8.90
2023-06-18T14:32:51.339Z,5.45
2023-06-18T14:35:20.847Z,6.93
2023-06-18T14:37:49.914Z,6.63
2023-06-18T14:40:17.852Z,5.03
2023-06-18T14:42:46.420Z,8.93
2023-06-18T14:45:14.349Z,6.13
2023-06-18T14:47:42.939Z,5.18
2023-06-18T14:50:12.383Z,7.60
2023-06-18T14:52:40.878Z,5.20
2023-06-18T14:55:09.298Z,6.63
2023-06-18T14:57:38.105Z,6.43
2023-06-18T15:00:08.015Z,8.77
2023-06-18T15:02:36.831Z,5.50
2023-06-18T15:05:05.163Z,6.80
2023-06-18T15:07:34.494Z,4.82
2023-06-18T15:10:02.306Z,4.82
2023-06-18T15:12:30.793Z,5.60
2023-06-18T15:14:58.882Z,6.97
2023-06-18T15:17:27.601Z,5.60
2023-06-18T15:19:59.000Z,6.03
2023-06-18T15:22:27.523Z,7.85
2023-06-18T15:24:55.647Z,6.63
2023-06-18T15:27:27.907Z,5.05
2023-06-18T15:29:56.270Z,6.20
2023-06-18T15:32:25.887Z,6.60
2023-06-18T15:34:54.472Z,5.13
2023-06-18T15:37:22.845Z,5.00
2023-06-18T15:39:50.725Z,6.57
2023-06-18T15:42:19.555Z,5.70
2023-06-18T15:44:48.041Z,5.38
2023-06-18T15:47:16.667Z,6.38
2023-06-18T15:49:44.610Z,6.88
2023-06-18T15:52:13.026Z,5.18
2023-06-18T15:54:41.689Z,6.33
2023-06-18T15:57:10.036Z,5.18
2023-06-18T15:59:37.898Z,7.13
2023-06-18T16:02:09.050Z,6.43
2023-06-18T16:04:37.043Z,4.60
2023-06-18T16:07:05.362Z,4.73
2023-06-18T16:09:33.250Z,6.13
2023-06-18T16:12:01.855Z,5.03
2023-06-18T16:14:30.025Z,5.35
2023-06-18T16:16:58.226Z,4.82
2023-06-18T16:19:26.717Z,6.37
2023-06-18T16:21:55.158Z,6.07
2023-06-18T16:24:23.205Z,14.38
2023-06-18T16:26:53.443Z,7.68
2023-06-18T16:29:21.738Z,6.78
2023-06-18T16:31:50.063Z,5.67
2023-06-18T16:34:18.105Z,8.40
2023-06-18T16:36:46.385Z,5.07
2023-06-18T16:39:14.739Z,6.90
2023-06-18T16:41:43.310Z,5.93
2023-06-18T16:44:11.240Z,5.10
2023-06-18T16:46:39.714Z,10.98
2023-06-18T16:49:07.734Z,4.88
2023-06-18T16:51:37.498Z,5.05
2023-06-18T16:54:05.678Z,5.72
2023-06-18T16:56:34.176Z,4.57
2023-06-18T16:59:02.541Z,6.28
2023-06-18T17:01:30.966Z,6.25
2023-06-18T17:03:59.979Z,7.13
2023-06-18T17:06:28.392Z,7.18
2023-06-18T17:08:56.454Z,4.73
2023-06-18T17:11:24.911Z,4.80
2023-06-18T17:13:53.638Z,6.93
2023-06-18T17:16:23.113Z,7.30
2023-06-18T17:18:51.025Z,6.07
2023-06-18T17:21:19.213Z,5.10
2023-06-18T17:23:47.218Z,5.45
2023-06-18T17:26:15.670Z,5.15
2023-06-18T17:28:44.252Z,6.07
2023-06-18T17:31:12.966Z,5.13
2023-06-18T17:33:41.897Z,5.27
2023-06-18T17:36:10.017Z,8.52
2023-06-18T17:38:37.947Z,4.60
2023-06-18T17:41:06.222Z,4.70
2023-06-18T17:43:34.348Z,8.18
2023-06-18T17:46:22.201Z,4.73
2023-06-18T17:48:50.520Z,9.25
2023-06-18T17:51:18.734Z,8.02
2023-06-18T17:53:47.006Z,6.97
2023-06-18T17:56:15.404Z,11.13
2023-06-18T17:58:43.512Z,6.20
2023-06-18T18:01:14.322Z,6.72
2023-06-18T18:03:44.662Z,4.88
2023-06-18T18:06:15.156Z,5.85
2023-06-18T18:08:45.886Z,7.13
2023-06-18T18:11:14.364Z,7.83
2023-06-18T18:13:42.423Z,9.55
2023-06-18T18:16:11.528Z,8.75
2023-06-18T18:18:39.957Z,14.85
2023-06-18T18:21:09.775Z,9.60
2023-06-18T18:23:39.552Z,10.67
2023-06-18T18:26:12.195Z,11.98
2023-06-18T18:28:40.848Z,7.85
2023-06-18T18:31:09.734Z,6.57
2023-06-18T18:33:38.011Z,7.05
2023-06-18T18:36:07.927Z,6.20
2023-06-18T18:38:35.953Z,8.65
2023-06-18T18:41:04.430Z,7.68
2023-06-18T18:43:32.470Z,7.85
2023-06-18T18:46:00.753Z,8.25
2023-06-18T18:48:28.956Z,9.73
2023-06-18T18:50:58.262Z,14.15
2023-06-18T18:53:26.324Z,15.63
2023-06-18T18:55:56.902Z,15.52
2023-06-18T18:58:30.695Z,11.55
2023-06-18T19:00:59.884Z,14.93
2023-06-18T19:03:28.911Z,7.60
2023-06-18T19:05:58.892Z,6.80
2023-06-18T19:08:26.841Z,13.05
2023-06-18T19:10:55.011Z,11.98
2023-06-18T19:13:22.942Z,9.73
2023-06-18T19:15:51.413Z,10.63
2023-06-18T19:18:19.329Z,10.07
2023-06-18T19:20:47.839Z,10.13
2023-06-18T19:23:16.015Z,8.80
2023-06-18T19:25:44.214Z,9.80
2023-06-18T19:28:12.225Z,9.20
2023-06-18T19:30:43.093Z,8.20
2023-06-18T19:33:11.528Z,13.35
2023-06-18T19:35:39.766Z,14.13
2023-06-18T19:38:07.939Z,14.30
2023-06-18T19:40:36.125Z,10.38
2023-06-18T19:43:03.985Z,12.73
2023-06-18T19:45:33.659Z,10.13
2023-06-18T19:48:01.964Z,14.07
2023-06-18T19:50:30.270Z,13.57
2023-06-18T19:52:58.323Z,14.13
2023-06-18T19:55:26.897Z,12.57
2023-06-18T19:57:54.942Z,13.60
2023-06-18T20:00:24.056Z,12.57
2023-06-18T20:02:52.424Z,10.40
2023-06-18T20:05:21.693Z,12.90
2023-06-18T20:07:49.722Z,12.77
2023-06-18T20:10:17.813Z,13.43
2023-06-18T20:12:45.775Z,14.23
2023-06-18T20:15:16.090Z,16.17
2023-06-18T20:17:44.136Z,12.90
2023-06-18T20:20:13.363Z,14.93
2023-06-18T20:22:41.418Z,12.43
2023-06-18T20:25:10.078Z,10.43
2023-06-18T20:27:38.100Z,10.23
2023-06-18T20:30:07.647Z,11.73
2023-06-18T20:32:35.407Z,10.40
2023-06-18T20:35:05.140Z,11.55
2023-06-18T20:37:33.220Z,11.70
2023-06-18T20:40:01.406Z,10.87
2023-06-18T20:42:29.525Z,11.35
2023-06-18T20:44:57.702Z,10.32
2023-06-18T20:47:25.766Z,12.55
2023-06-18T20:49:53.972Z,10.10
2023-06-18T20:52:22.742Z,11.60
2023-06-18T20:54:50.794Z,10.45
2023-06-18T20:57:20.054Z,12.20
2023-06-18T20:59:49.882Z,12.60
2023-06-18T21:02:17.978Z,12.20
2023-06-18T21:04:46.221Z,10.63
2023-06-18T21:07:14.416Z,11.10
2023-06-18T21:09:42.642Z,9.15
2023-06-18T21:12:10.505Z,14.05
2023-06-18T21:14:38.576Z,10.63
2023-06-18T21:17:06.530Z,9.33
2023-06-18T21:19:35.346Z,13.43
2023-06-18T21:22:03.833Z,11.65
2023-06-18T21:24:32.088Z,14.30
2023-06-18T21:27:00.040Z,12.63
2023-06-18T21:29:28.205Z,8.90
2023-06-18T21:31:57.737Z,13.02
2023-06-18T21:34:27.072Z,12.15
2023-06-18T21:36:54.999Z,12.40
2023-06-18T21:39:23.037Z,10.90
2023-06-18T21:41:50.901Z,9.43
2023-06-18T21:44:19.360Z,17.23
2023-06-18T21:46:47.446Z,9.80
2023-06-18T21:49:15.521Z,10.02
2023-06-18T21:51:45.309Z,9.82
2023-06-18T21:54:13.451Z,13.80
2023-06-18T21:56:41.889Z,12.18
2023-06-18T21:59:10.026Z,9.10
2023-06-18T22:01:37.719Z,14.13
2023-06-18T22:04:05.909Z,12.13
2023-06-18T22:06:33.742Z,10.90
2023-06-18T22:09:01.638Z,12.07
2023-06-18T22:11:29.606Z,13.02
2023-06-18T22:13:57.798Z,11.20
2023-06-18T22:16:26.435Z,8.95
2023-06-18T22:18:54.551Z,11.30
2023-06-18T22:21:27.334Z,12.38
2023-06-18T22:23:58.528Z,10.23
2023-06-18T22:26:26.357Z,18.65
2023-06-18T22:28:54.505Z,10.02
2023-06-18T22:31:22.223Z,10.77
2023-06-18T22:33:50.273Z,10.13
2023-06-18T22:36:18.064Z,10.70
2023-06-18T22:38:46.518Z,9.38
2023-06-18T22:41:14.220Z,11.05
2023-06-18T22:43:42.369Z,10.17
2023-06-18T22:46:10.492Z,10.95
2023-06-18T22:48:38.684Z,12.82
2023-06-18T22:51:06.692Z,10.40
2023-06-18T22:53:34.755Z,10.57
2023-06-18T22:56:02.739Z,11.10
2023-06-18T22:58:30.970Z,9.60
2023-06-18T23:00:58.991Z,9.98
2023-06-18T23:03:27.178Z,11.25
2023-06-18T23:05:55.139Z,12.02
2023-06-18T23:08:23.221Z,10.43
2023-06-18T23:10:51.047Z,10.95
2023-06-18T23:13:19.233Z,8.88
2023-06-18T23:15:47.040Z,8.63
2023-06-18T23:18:15.212Z,8.52
2023-06-18T23:20:43.353Z,10.67
2023-06-18T23:23:11.331Z,12.57
2023-06-18T23:25:38.985Z,11.70
2023-06-18T23:28:07.158Z,11.88
2023-06-18T23:30:36.353Z,9.70
2023-06-18T23:33:04.566Z,9.33
2023-06-18T23:35:32.711Z,13.15
2023-06-18T23:38:00.537Z,11.95
2023-06-18T23:40:28.223Z,10.82
2023-06-18T23:42:56.233Z,10.07
2023-06-18T23:45:23.973Z,14.80
2023-06-18T23:47:51.940Z,12.32
2023-06-18T23:50:20.818Z,10.45
2023-06-18T23:52:48.891Z,11.82
2023-06-18T23:55:16.728Z,12.73
2023-06-18T23:57:46.040Z,12.47
